createdAt,value
2018-04-18T00:00:59.535Z,58.66
2018-04-18T00:03:27.914Z,59.13
2018-04-18T00:05:56.442Z,58.68
2018-04-18T00:08:24.647Z,58.21
2018-04-18T00:10:52.960Z,59.29
2018-04-18T00:13:21.331Z,62.32
2018-04-18T00:15:49.875Z,61.30
2018-04-18T00:18:18.403Z,60.77
2018-04-18T00:20:46.846Z,62.19
2018-04-18T00:23:15.426Z,64.18
2018-04-18T00:25:43.819Z,63.89
2018-04-18T00:28:12.077Z,63.41
2018-04-18T00:30:40.366Z,63.22
2018-04-18T00:33:08.839Z,62.90
2018-04-18T00:35:37.314Z,61.52
2018-04-18T00:38:05.608Z,61.84
2018-04-18T00:40:34.165Z,64.32
2018-04-18T00:43:02.826Z,63.53
2018-04-18T00:45:31.244Z,63.72
2018-04-18T00:47:59.827Z,62.63
2018-04-18T00:50:28.038Z,61.87
2018-04-18T00:52:56.702Z,61.69
2018-04-18T00:55:25.054Z,61.41
2018-04-18T00:57:53.349Z,61.30
2018-04-18T01:00:21.918Z,60.83
2018-04-18T01:02:50.222Z,60.88
2018-04-18T01:05:18.669Z,60.59
2018-04-18T01:07:47.352Z,60.18
2018-04-18T01:10:15.888Z,60.12
2018-04-18T01:12:44.452Z,59.91
2018-04-18T01:15:12.903Z,60.01
2018-04-18T01:17:41.449Z,61.00
2018-04-18T01:20:10.341Z,60.70
2018-04-18T01:22:38.757Z,60.18
2018-04-18T01:25:07.433Z,60.03
2018-04-18T01:27:35.750Z,61.94
2018-04-18T01:30:03.996Z,63.00
2018-04-18T01:32:32.782Z,65.45
2018-04-18T01:35:01.223Z,64.01
2018-04-18T01:37:29.759Z,62.40
2018-04-18T01:39:58.326Z,63.51
2018-04-18T01:42:26.799Z,64.58
2018-04-18T01:44:55.322Z,62.30
2018-04-18T01:47:23.968Z,61.83
2018-04-18T01:49:52.422Z,61.92
2018-04-18T01:52:20.827Z,66.02
2018-04-18T01:54:49.411Z,67.67
2018-04-18T01:57:17.713Z,68.68
2018-04-18T01:59:46.266Z,67.65
2018-04-18T02:02:14.710Z,64.88
2018-04-18T02:04:43.314Z,64.72
2018-04-18T02:07:11.604Z,67.14
2018-04-18T02:09:40.078Z,67.68
2018-04-18T02:12:08.307Z,66.05
2018-04-18T02:14:37.144Z,63.40
2018-04-18T02:17:05.739Z,63.40
2018-04-18T02:19:33.945Z,62.21
2018-04-18T02:22:02.283Z,64.19
2018-04-18T02:24:30.612Z,64.01
2018-04-18T02:26:59.051Z,63.72
2018-04-18T02:29:27.565Z,63.01
2018-04-18T02:31:56.309Z,62.52
2018-04-18T02:34:24.678Z,62.16
2018-04-18T02:36:53.165Z,61.49
2018-04-18T02:39:21.569Z,61.46
2018-04-18T02:41:49.918Z,61.23
2018-04-18T02:44:18.170Z,60.81
2018-04-18T02:46:46.789Z,60.79
2018-04-18T02:49:15.155Z,60.58
2018-04-18T02:51:43.907Z,63.49
2018-04-18T02:54:12.236Z,62.43
2018-04-18T02:56:40.802Z,62.04
2018-04-18T02:59:09.482Z,61.67
2018-04-18T03:01:37.872Z,61.75
2018-04-18T03:04:06.536Z,61.74
2018-04-18T03:06:34.735Z,62.08
2018-04-18T03:09:03.217Z,62.39
2018-04-18T03:11:31.522Z,62.89
2018-04-18T03:13:59.779Z,63.59
2018-04-18T03:16:28.020Z,64.27
2018-04-18T03:18:56.615Z,65.24
2018-04-18T03:21:24.777Z,66.23
2018-04-18T03:23:52.975Z,66.04
2018-04-18T03:26:21.333Z,66.51
2018-04-18T03:28:49.726Z,67.39
2018-04-18T03:31:18.099Z,66.46
2018-04-18T03:33:46.279Z,66.25
2018-04-18T03:36:14.641Z,65.09
2018-04-18T03:38:43.057Z,65.37
2018-04-18T03:41:12.525Z,64.89
2018-04-18T03:43:40.687Z,67.01
2018-04-18T03:46:08.979Z,67.28
2018-04-18T03:48:37.165Z,68.02
2018-04-18T03:51:05.625Z,66.23
2018-04-18T03:53:33.802Z,65.43
2018-04-18T03:56:02.078Z,66.75
2018-04-18T03:58:30.384Z,66.37
2018-04-18T04:00:58.830Z,67.25
2018-04-18T04:03:27.347Z,66.59
2018-04-18T04:05:55.803Z,65.94
2018-04-18T04:08:24.577Z,64.38
2018-04-18T04:10:53.027Z,64.66
2018-04-18T04:13:21.580Z,65.20
2018-04-18T04:15:50.029Z,64.74
2018-04-18T04:21:35.691Z,62.67
2018-04-18T04:24:15.878Z,62.95
2018-04-18T04:26:44.278Z,65.56
2018-04-18T04:29:13.781Z,65.36
2018-04-18T04:31:42.144Z,66.99
2018-04-18T04:34:10.727Z,68.03
2018-04-18T04:36:39.118Z,65.34
2018-04-18T04:39:07.579Z,63.13
2018-04-18T04:41:35.988Z,63.71
2018-04-18T04:44:04.453Z,68.11
2018-04-18T04:46:32.912Z,69.12
2018-04-18T04:49:01.264Z,67.51
2018-04-18T04:51:29.645Z,68.36
2018-04-18T04:53:58.070Z,65.51
2018-04-18T04:56:26.562Z,67.99
2018-04-18T04:58:54.951Z,64.73
2018-04-18T05:01:23.593Z,65.51
2018-04-18T05:03:51.888Z,65.15
2018-04-18T05:06:20.253Z,65.60
2018-04-18T05:08:48.537Z,64.22
2018-04-18T05:11:17.011Z,64.68
2018-04-18T05:13:45.657Z,63.63
2018-04-18T05:16:13.987Z,64.04
2018-04-18T05:18:42.450Z,64.30
2018-04-18T05:21:10.816Z,64.73
2018-04-18T05:23:39.103Z,65.92
2018-04-18T05:26:07.686Z,68.69
2018-04-18T05:28:36.544Z,68.52
2018-04-18T05:31:05.097Z,68.81
2018-04-18T05:33:33.632Z,69.03
2018-04-18T05:36:02.332Z,68.39
2018-04-18T05:38:30.618Z,68.56
2018-04-18T05:40:59.051Z,67.84
2018-04-18T05:43:27.277Z,67.74
2018-04-18T05:45:55.625Z,66.97
2018-04-18T05:48:24.076Z,64.99
2018-04-18T05:50:52.798Z,63.28
2018-04-18T05:53:21.280Z,62.48
2018-04-18T05:55:49.568Z,63.69
2018-04-18T05:58:17.696Z,59.83
2018-04-18T06:00:45.806Z,62.11
2018-04-18T06:03:13.781Z,54.90
2018-04-18T06:05:41.774Z,57.97
2018-04-18T06:08:09.789Z,58.83
2018-04-18T06:10:37.735Z,59.90
2018-04-18T06:13:05.757Z,59.98
2018-04-18T06:15:33.739Z,58.95
2018-04-18T06:18:01.724Z,55.57
2018-04-18T06:20:29.777Z,57.66
2018-04-18T06:22:57.825Z,60.05
2018-04-18T06:25:25.841Z,62.45
2018-04-18T06:27:53.713Z,53.74
2018-04-18T06:30:21.712Z,54.61
2018-04-18T06:32:50.139Z,52.84
2018-04-18T06:35:18.148Z,51.91
2018-04-18T06:37:46.145Z,51.14
2018-04-18T06:40:14.150Z,50.34
2018-04-18T06:42:42.152Z,49.80
2018-04-18T06:45:10.151Z,50.59
2018-04-18T06:47:38.225Z,52.04
2018-04-18T06:50:06.233Z,49.10
2018-04-18T06:52:34.235Z,44.30
2018-04-18T06:55:02.278Z,45.29
2018-04-18T06:57:30.296Z,47.26
2018-04-18T06:59:58.317Z,45.40
2018-04-18T07:02:26.344Z,46.94
2018-04-18T07:04:54.373Z,45.13
2018-04-18T07:07:22.403Z,46.66
2018-04-18T07:09:50.426Z,45.15
2018-04-18T07:12:18.392Z,46.01
2018-04-18T07:14:46.491Z,46.61
2018-04-18T07:17:14.520Z,45.30
2018-04-18T07:19:42.530Z,44.68
2018-04-18T07:22:10.542Z,43.64
2018-04-18T07:24:38.532Z,43.88
2018-04-18T07:27:06.655Z,42.29
2018-04-18T07:29:34.764Z,41.28
2018-04-18T07:32:02.782Z,42.38
2018-04-18T07:34:31.065Z,41.34
2018-04-18T07:36:59.103Z,43.28
2018-04-18T07:39:27.087Z,44.03
2018-04-18T07:41:55.165Z,42.16
2018-04-18T07:44:23.176Z,42.27
2018-04-18T07:46:51.133Z,42.27
2018-04-18T07:49:19.141Z,41.62
2018-04-18T07:51:47.160Z,40.67
2018-04-18T07:54:15.220Z,42.39
2018-04-18T07:56:43.225Z,40.75
2018-04-18T07:59:11.246Z,40.96
2018-04-18T08:01:39.249Z,40.89
2018-04-18T08:04:07.280Z,39.58
2018-04-18T08:06:35.319Z,39.08
2018-04-18T08:09:03.536Z,37.38
2018-04-18T08:11:31.544Z,36.99
2018-04-18T08:13:59.502Z,36.75
2018-04-18T08:16:27.578Z,36.73
2018-04-18T08:18:55.592Z,38.73
2018-04-18T08:21:23.590Z,37.49
2018-04-18T08:23:51.593Z,38.21
2018-04-18T08:26:19.694Z,38.13
2018-04-18T08:28:47.722Z,36.63
2018-04-18T08:31:15.786Z,36.39
2018-04-18T08:33:43.824Z,36.90
2018-04-18T08:36:12.163Z,36.32
2018-04-18T08:38:40.115Z,33.76
2018-04-18T08:41:08.139Z,32.42
2018-04-18T08:43:36.182Z,34.79
2018-04-18T08:46:04.226Z,32.40
2018-04-18T08:48:32.229Z,32.88
2018-04-18T08:51:00.249Z,35.34
2018-04-18T08:53:28.178Z,33.68
2018-04-18T08:55:56.198Z,32.69
2018-04-18T08:58:24.225Z,33.46
2018-04-18T09:00:52.185Z,32.00
2018-04-18T09:03:20.125Z,32.41
2018-04-18T09:05:48.279Z,32.27
2018-04-18T09:08:16.287Z,31.36
2018-04-18T09:10:44.386Z,33.36
2018-04-18T09:13:12.437Z,32.50
2018-04-18T09:15:40.490Z,31.26
2018-04-18T09:18:08.573Z,30.18
2018-04-18T09:20:36.637Z,32.32
2018-04-18T09:23:04.632Z,31.29
2018-04-18T09:25:32.578Z,33.25
2018-04-18T09:28:00.630Z,30.34
2018-04-18T09:30:29.245Z,30.30
2018-04-18T09:32:57.543Z,28.92
2018-04-18T09:35:25.798Z,29.55
2018-04-18T09:37:54.256Z,29.79
2018-04-18T09:40:22.271Z,29.59
2018-04-18T09:42:50.695Z,29.47
2018-04-18T09:45:19.226Z,27.59
2018-04-18T09:47:47.777Z,25.47
2018-04-18T09:50:16.007Z,26.14
2018-04-18T09:52:44.545Z,25.93
2018-04-18T09:55:13.041Z,24.12
2018-04-18T09:57:41.227Z,22.50
2018-04-18T10:00:09.660Z,21.23
2018-04-18T10:02:38.102Z,21.93
2018-04-18T10:05:08.421Z,22.78
2018-04-18T10:07:36.766Z,22.18
2018-04-18T10:10:05.299Z,22.03
2018-04-18T10:12:33.945Z,20.43
2018-04-18T10:15:02.579Z,21.00
2018-04-18T10:17:31.093Z,19.27
2018-04-18T10:19:59.577Z,19.74
2018-04-18T10:22:28.164Z,21.40
2018-04-18T10:24:56.481Z,22.52
2018-04-18T10:27:25.060Z,22.19
2018-04-18T10:29:53.592Z,21.55
2018-04-18T10:32:22.327Z,21.04
2018-04-18T10:34:50.588Z,20.75
2018-04-18T10:37:18.704Z,18.19
2018-04-18T10:39:46.924Z,17.57
2018-04-18T10:42:14.917Z,17.90
2018-04-18T10:44:42.934Z,18.19
2018-04-18T10:47:11.005Z,18.67
2018-04-18T10:49:39.045Z,19.70
2018-04-18T10:52:07.464Z,18.79
2018-04-18T10:54:35.739Z,18.98
2018-04-18T10:57:04.165Z,18.23
2018-04-18T10:59:32.684Z,16.79
2018-04-18T11:02:01.188Z,16.31
2018-04-18T11:04:29.475Z,17.16
2018-04-18T11:06:57.451Z,17.49
2018-04-18T11:09:25.434Z,16.03
2018-04-18T11:11:53.406Z,17.60
2018-04-18T11:14:21.446Z,16.91
2018-04-18T11:16:49.706Z,16.67
2018-04-18T11:19:18.075Z,16.12
2018-04-18T11:21:46.253Z,16.21
2018-04-18T11:24:14.646Z,16.91
2018-04-18T11:26:42.683Z,16.15
2018-04-18T11:29:10.855Z,15.32
2018-04-18T11:31:38.841Z,15.50
2018-04-18T11:34:07.122Z,13.95
2018-04-18T11:36:35.321Z,14.19
2018-04-18T11:39:03.773Z,13.93
2018-04-18T11:41:32.072Z,13.39
2018-04-18T11:44:00.187Z,13.95
2018-04-18T11:46:28.524Z,13.95
2018-04-18T11:48:56.867Z,14.35
2018-04-18T11:51:25.302Z,15.27
2018-04-18T11:53:53.747Z,15.68
2018-04-18T11:56:22.322Z,15.03
2018-04-18T11:58:50.368Z,15.05
2018-04-18T12:01:18.334Z,14.24
2018-04-18T12:03:46.853Z,13.40
2018-04-18T12:06:15.528Z,14.17
2018-04-18T12:08:44.310Z,14.56
2018-04-18T12:11:12.600Z,15.08
2018-04-18T12:13:41.482Z,15.03
2018-04-18T12:16:10.158Z,14.88
2018-04-18T12:18:38.955Z,15.29
2018-04-18T12:21:07.227Z,15.51
2018-04-18T12:23:35.610Z,14.96
2018-04-18T12:26:03.901Z,15.43
2018-04-18T12:28:32.572Z,15.21
2018-04-18T12:31:01.465Z,14.17
2018-04-18T12:33:29.822Z,15.38
2018-04-18T12:35:58.233Z,15.85
2018-04-18T12:38:26.394Z,14.72
2018-04-18T12:40:55.035Z,14.74
2018-04-18T12:43:23.365Z,15.64
2018-04-18T12:45:52.110Z,13.92
2018-04-18T12:48:20.316Z,15.55
2018-04-18T12:50:48.881Z,15.42
2018-04-18T12:53:17.370Z,15.28
2018-04-18T12:55:45.653Z,14.42
2018-04-18T12:58:14.011Z,15.15
2018-04-18T13:00:42.230Z,15.28
2018-04-18T13:03:10.917Z,14.95
2018-04-18T13:05:39.264Z,13.62
2018-04-18T13:08:07.271Z,15.14
2018-04-18T13:10:35.228Z,15.30
2018-04-18T13:13:03.185Z,15.45
2018-04-18T13:15:31.242Z,16.13
2018-04-18T13:17:59.302Z,15.52
2018-04-18T13:20:27.336Z,16.01
2018-04-18T13:22:55.403Z,15.15
2018-04-18T13:25:23.467Z,15.34
2018-04-18T13:27:51.558Z,15.34
2018-04-18T13:30:19.569Z,15.37
2018-04-18T13:32:47.592Z,15.81
2018-04-18T13:35:15.622Z,14.69
2018-04-18T13:37:43.726Z,14.96
2018-04-18T13:40:11.837Z,15.72
2018-04-18T13:42:39.996Z,16.25
2018-04-18T13:45:08.143Z,16.68
2018-04-18T13:47:36.276Z,16.42
2018-04-18T13:50:04.362Z,16.82
2018-04-18T13:52:32.409Z,18.81
2018-04-18T13:55:00.492Z,17.80
2018-04-18T13:57:28.529Z,18.62
2018-04-18T13:59:56.523Z,18.89
2018-04-18T14:02:24.497Z,18.30
2018-04-18T14:04:52.491Z,18.14
2018-04-18T14:07:20.488Z,17.77
2018-04-18T14:09:48.503Z,16.99
2018-04-18T14:12:16.615Z,17.15
2018-04-18T14:14:44.653Z,17.63
2018-04-18T14:17:12.602Z,18.45
2018-04-18T14:19:40.621Z,19.07
2018-04-18T14:22:08.643Z,18.29
2018-04-18T14:24:36.659Z,19.98
2018-04-18T14:27:04.692Z,20.42
2018-04-18T14:29:32.674Z,20.23
2018-04-18T14:32:00.877Z,22.22
2018-04-18T14:34:28.897Z,23.36
2018-04-18T14:36:56.965Z,24.26
2018-04-18T14:39:24.990Z,24.03
2018-04-18T14:41:52.987Z,23.79
2018-04-18T14:44:21.061Z,24.20
2018-04-18T14:46:49.469Z,25.06
2018-04-18T14:49:17.573Z,25.14
2018-04-18T14:51:45.641Z,25.28
2018-04-18T14:54:13.697Z,25.34
2018-04-18T14:56:41.761Z,25.03
2018-04-18T14:59:09.760Z,26.39
2018-04-18T15:01:37.757Z,27.62
2018-04-18T15:04:05.865Z,27.45
2018-04-18T15:06:33.849Z,27.49
2018-04-18T15:09:01.922Z,28.49
2018-04-18T15:11:30.066Z,27.79
2018-04-18T15:13:58.511Z,28.45
2018-04-18T15:16:26.566Z,27.38
2018-04-18T15:18:54.969Z,27.86
2018-04-18T15:21:23.193Z,27.77
2018-04-18T15:23:51.738Z,28.81
2018-04-18T15:26:20.134Z,28.47
2018-04-18T15:28:48.577Z,28.21
2018-04-18T15:31:17.157Z,27.15
2018-04-18T15:33:45.855Z,27.24
2018-04-18T15:36:15.455Z,27.42
2018-04-18T15:38:43.934Z,29.26
2018-04-18T15:41:12.521Z,28.41
2018-04-18T15:43:40.997Z,28.46
2018-04-18T15:46:09.180Z,28.92
2018-04-18T15:48:37.649Z,28.49
2018-04-18T15:51:06.658Z,28.36
2018-04-18T15:53:35.328Z,29.05
2018-04-18T15:56:03.719Z,29.93
2018-04-18T15:58:32.175Z,29.02
2018-04-18T16:01:00.402Z,29.63
2018-04-18T16:03:28.877Z,31.54
2018-04-18T16:05:57.318Z,31.06
2018-04-18T16:08:25.615Z,31.26
2018-04-18T16:10:54.086Z,31.33
2018-04-18T16:13:22.371Z,31.88
2018-04-18T16:15:50.979Z,31.07
2018-04-18T16:18:19.468Z,31.41
2018-04-18T16:20:47.473Z,31.94
2018-04-18T16:23:15.583Z,33.30
2018-04-18T16:25:43.577Z,33.87
2018-04-18T16:28:11.973Z,32.53
2018-04-18T16:30:42.948Z,32.19
2018-04-18T16:33:11.021Z,31.95
2018-04-18T16:35:39.119Z,32.41
2018-04-18T16:38:07.127Z,33.28
2018-04-18T16:40:35.185Z,33.64
2018-04-18T16:43:03.703Z,33.84
2018-04-18T16:45:32.288Z,34.67
2018-04-18T16:48:00.414Z,34.65
2018-04-18T16:50:29.150Z,35.04
2018-04-18T16:52:57.355Z,34.78
2018-04-18T16:55:25.824Z,34.81
2018-04-18T16:57:54.288Z,35.02
2018-04-18T17:00:22.803Z,36.23
2018-04-18T17:02:51.371Z,36.21
2018-04-18T17:05:20.029Z,35.40
2018-04-18T17:07:47.982Z,36.05
2018-04-18T17:10:16.071Z,36.43
2018-04-18T17:12:44.546Z,36.22
2018-04-18T17:15:13.129Z,37.18
2018-04-18T17:17:41.610Z,37.18
2018-04-18T17:20:09.906Z,37.10
2018-04-18T17:22:38.466Z,38.28
2018-04-18T17:25:07.156Z,39.01
2018-04-18T17:27:35.544Z,37.67
2018-04-18T17:30:04.234Z,38.83
2018-04-18T17:32:32.589Z,37.59
2018-04-18T17:35:01.090Z,37.06
2018-04-18T17:37:29.450Z,37.32
2018-04-18T17:39:57.927Z,38.20
2018-04-18T17:42:26.409Z,38.25
2018-04-18T17:44:55.303Z,38.58
2018-04-18T17:47:23.718Z,38.52
2018-04-18T17:49:52.174Z,38.54
2018-04-18T17:52:21.057Z,38.86
2018-04-18T17:54:49.740Z,39.47
2018-04-18T17:57:18.108Z,39.79
2018-04-18T17:59:46.561Z,39.65
2018-04-18T18:02:14.969Z,41.09
2018-04-18T18:04:43.523Z,41.09
2018-04-18T18:07:11.801Z,42.03
2018-04-18T18:09:40.157Z,40.23
2018-04-18T18:12:08.237Z,41.16
2018-04-18T18:14:36.202Z,40.38
2018-04-18T18:17:04.169Z,41.25
2018-04-18T18:19:32.263Z,41.66
2018-04-18T18:22:00.364Z,41.67
2018-04-18T18:24:28.467Z,41.77
2018-04-18T18:26:56.532Z,44.08
2018-04-18T18:29:24.591Z,43.65
2018-04-18T18:31:52.627Z,43.04
2018-04-18T18:34:21.160Z,43.36
2018-04-18T18:36:49.502Z,43.37
2018-04-18T18:39:17.630Z,44.79
2018-04-18T18:41:46.259Z,42.78
2018-04-18T18:44:14.703Z,42.41
2018-04-18T18:46:43.254Z,42.21
2018-04-18T18:49:11.331Z,42.13
2018-04-18T18:51:39.687Z,42.07
2018-04-18T18:54:08.450Z,41.76
2018-04-18T18:56:36.441Z,42.43
2018-04-18T18:59:04.465Z,42.58
2018-04-18T19:01:32.498Z,43.77
2018-04-18T19:04:00.583Z,44.40
2018-04-18T19:06:28.643Z,45.10
2018-04-18T19:08:56.685Z,44.76
2018-04-18T19:11:24.687Z,45.78
2018-04-18T19:13:52.703Z,46.59
2018-04-18T19:16:20.763Z,45.15
2018-04-18T19:18:48.823Z,46.27
2018-04-18T19:21:17.330Z,44.54
2018-04-18T19:23:45.737Z,45.53
2018-04-18T19:26:14.211Z,46.69
2018-04-18T19:28:42.884Z,45.91
2018-04-18T19:31:11.872Z,44.94
2018-04-18T19:33:40.453Z,44.33
2018-04-18T19:36:09.205Z,45.65
2018-04-18T19:38:37.639Z,46.38
2018-04-18T19:41:06.098Z,47.75
2018-04-18T19:43:34.395Z,46.65
2018-04-18T19:46:03.080Z,45.91
2018-04-18T19:48:31.637Z,45.13
2018-04-18T19:51:00.082Z,44.96
2018-04-18T19:53:28.419Z,46.31
2018-04-18T19:55:57.180Z,47.33
2018-04-18T19:58:26.175Z,46.46
2018-04-18T20:00:54.471Z,44.96
2018-04-18T20:03:22.931Z,46.28
2018-04-18T20:05:51.520Z,45.09
2018-04-18T20:08:19.815Z,45.56
2018-04-18T20:10:48.171Z,45.19
2018-04-18T20:13:16.424Z,44.75
2018-04-18T20:15:45.042Z,45.61
2018-04-18T20:18:13.413Z,46.15
2018-04-18T20:20:41.531Z,46.67
2018-04-18T20:23:10.257Z,47.36
2018-04-18T20:25:38.461Z,47.36
2018-04-18T20:28:07.268Z,46.96
2018-04-18T20:30:35.925Z,46.52
2018-04-18T20:33:04.249Z,47.26
2018-04-18T20:35:32.669Z,47.28
2018-04-18T20:38:01.497Z,46.60
2018-04-18T20:40:30.343Z,46.89
2018-04-18T20:42:58.878Z,46.10
2018-04-18T20:45:27.468Z,44.65
2018-04-18T20:47:55.679Z,44.50
2018-04-18T20:50:23.967Z,44.45
2018-04-18T20:52:52.638Z,44.37
2018-04-18T20:55:21.117Z,43.98
2018-04-18T20:57:49.665Z,44.36
2018-04-18T21:00:18.317Z,43.85
2018-04-18T21:02:46.866Z,44.65
2018-04-18T21:05:15.708Z,43.84
2018-04-18T21:07:44.169Z,43.11
2018-04-18T21:10:12.717Z,44.24
2018-04-18T21:12:41.408Z,43.14
2018-04-18T21:15:09.903Z,43.71
2018-04-18T21:17:38.612Z,44.71
2018-04-18T21:20:06.942Z,44.11
2018-04-18T21:22:35.186Z,43.66
2018-04-18T21:25:03.497Z,43.09
2018-04-18T21:27:32.128Z,43.40
2018-04-18T21:30:00.658Z,42.84
2018-04-18T21:32:29.262Z,43.31
2018-04-18T21:34:57.617Z,43.31
2018-04-18T21:37:25.997Z,42.72
2018-04-18T21:39:54.371Z,42.55
2018-04-18T21:42:22.891Z,41.60
2018-04-18T21:44:51.438Z,41.29
2018-04-18T21:47:19.969Z,42.02
2018-04-18T21:49:48.740Z,44.13
2018-04-18T21:52:16.977Z,40.47
2018-04-18T21:54:45.280Z,40.79
2018-04-18T21:57:13.837Z,40.57
2018-04-18T21:59:42.829Z,40.75
2018-04-18T22:02:11.320Z,41.22
2018-04-18T22:04:39.731Z,42.25
2018-04-18T22:07:08.483Z,42.35
2018-04-18T22:09:37.064Z,42.80
2018-04-18T22:12:05.711Z,43.89
2018-04-18T22:14:34.398Z,44.49
2018-04-18T22:17:02.783Z,45.89
2018-04-18T22:19:31.296Z,46.13
2018-04-18T22:21:59.641Z,46.90
2018-04-18T22:24:28.255Z,47.10
2018-04-18T22:26:56.532Z,46.80
2018-04-18T22:29:25.179Z,47.66
2018-04-18T22:31:53.486Z,47.83
2018-04-18T22:34:21.699Z,48.10
2018-04-18T22:36:50.171Z,48.00
2018-04-18T22:39:18.624Z,48.43
2018-04-18T22:41:47.019Z,46.24
2018-04-18T22:44:15.688Z,46.98
2018-04-18T22:46:44.028Z,46.83
2018-04-18T22:49:12.692Z,46.69
2018-04-18T22:51:41.194Z,47.15
2018-04-18T22:54:09.822Z,47.24
2018-04-18T22:56:38.567Z,47.90
2018-04-18T22:59:07.026Z,47.93
2018-04-18T23:01:35.567Z,46.84
2018-04-18T23:04:04.154Z,45.43
2018-04-18T23:06:32.689Z,45.47
2018-04-18T23:09:01.006Z,45.29
2018-04-18T23:11:29.582Z,44.73
2018-04-18T23:13:57.993Z,44.89
2018-04-18T23:16:26.340Z,44.75
2018-04-18T23:18:55.144Z,45.30
2018-04-18T23:21:23.489Z,45.03
2018-04-18T23:23:51.780Z,45.39
2018-04-18T23:26:20.327Z,45.23
2018-04-18T23:28:48.697Z,45.48
2018-04-18T23:31:16.914Z,45.51
2018-04-18T23:33:45.098Z,45.27
2018-04-18T23:36:13.806Z,45.37
2018-04-18T23:38:42.256Z,46.88
2018-04-18T23:41:10.655Z,47.09
2018-04-18T23:43:39.221Z,46.58
2018-04-18T23:46:08.003Z,46.48
2018-04-18T23:48:36.436Z,46.33
2018-04-18T23:51:04.881Z,46.14
2018-04-18T23:53:33.437Z,47.72
2018-04-18T23:56:01.852Z,47.51
2018-04-18T23:58:30.106Z,46.94
